Flight Track Log - Related Links

Times and Time Zones

All times are in EDT time to prevent confusion due to time zone crossing. See the AWE1452 flight status page for this flight to view local times or setup timezone preferences in your user account.

Time Position Orientation Groundspeed Altitude Reporting Facility
EDT Latitude Longitude Course Direction KTS MPH feet Rate Location/Type
Thu 05:20:00 PM 18.7199 -68.6715 305° West  Level FlightAware Approximate
Thu 05:21:00 PM 18.7815 -68.7797 298° West  Level FlightAware Approximate
Thu 05:22:00 PM 18.8374 -68.8915 298° West  Level FlightAware Approximate
Thu 05:23:00 PM 18.8934 -69.0034 298° West  Level FlightAware Approximate
Thu 05:24:00 PM 18.9510 -69.1143 301° West  Level FlightAware Approximate
Thu 05:25:00 PM 19.0127 -69.2228 300° West  Level FlightAware Approximate
Thu 05:26:00 PM 19.0734 -69.3320 300° West  Level FlightAware Approximate
Thu 05:27:00 PM 19.1319 -69.4567 296° West  Level FlightAware Approximate
Thu 05:28:00 PM 19.1942 -69.5792 302° West  Level FlightAware Approximate
Thu 05:29:00 PM 19.2648 -69.6969 302° West  Level FlightAware Approximate
Thu 05:29:57 PM 19.2175 -69.2247 327° Northwest 471 542 25,400  Level Miami Center
Thu 05:30:00 PM 19.3940 -69.7088 349° North  Level FlightAware Approximate
Thu 05:30:57 PM 19.3247 -69.2869 331° Northwest 458 527 27,300  Level Miami Center
Thu 05:31:00 PM 19.5160 -69.7544 332° Northwest  Level FlightAware Approximate
Thu 05:31:57 PM 19.4322 -69.3644 326° Northwest 458 527 28,700  Level Miami Center
Thu 05:32:00 PM 19.6262 -69.8297 327° Northwest  Level FlightAware Approximate
Thu 05:32:57 PM 19.5339 -69.4425 324° Northwest 458 527 31,900  Level Miami Center
Thu 05:33:00 PM 19.7365 -69.9060 327° Northwest  Level FlightAware Approximate
Thu 05:33:57 PM 19.6128 -69.5283 314° West 431 496 33,900  Level Miami Center
Thu 05:34:00 PM 19.8443 -69.9858 327° Northwest  Level FlightAware Approximate
Thu 05:34:57 PM 19.6897 -69.6189 312° West 420 483 35,000  Level Miami Center
Thu 05:35:00 PM 19.9546 -70.0621 327° Northwest  Level FlightAware Approximate
Thu 05:35:57 PM 19.7689 -69.7094 313° West 420 483 36,400  Level Miami Center
Thu 05:36:57 PM 19.8519 -69.7975 315° West 420 483 37,300 800 Climbing Miami Center
Thu 05:37:57 PM 19.9311 -69.8903 312° West 426 490 38,000 350 Climbing Miami Center
Thu 05:38:57 PM 20.0122 -69.9811 314° West 426 490 38,000  Level Miami Center
Thu 05:39:57 PM 20.0914 -70.0764 312° West 426 490 38,000  Level Miami Center
Thu 05:40:57 PM 20.1742 -70.1650 315° West 426 490 38,000  Level Miami Center
Thu 05:41:57 PM 20.2511 -70.2583 311° West 426 490 38,000  Level Miami Center
Thu 05:42:57 PM 20.3400 -70.3381 320° Northwest 426 490 38,000  Level Miami Center
Thu 05:43:57 PM 20.4653 -70.3431 358° North 401 461 38,000  Level Miami Center
Thu 05:44:57 PM 20.5919 -70.3328 North 425 489 38,000  Level Miami Center
Thu 05:45:57 PM 20.7167 -70.3269 North 438 504 38,000  Level Miami Center
Thu 05:46:57 PM 20.8433 -70.3186 North 448 516 38,000  Level Miami Center
Thu 05:47:57 PM 20.9744 -70.3100 North 453 521 38,000  Level Miami Center
Thu 05:48:57 PM 21.0989 -70.2997 North 458 527 38,000  Level Miami Center
Thu 05:49:57 PM 21.2258 -70.2933 North 458 527 38,000  Level Miami Center
Thu 05:50:57 PM 21.3506 -70.2853 North 458 527 38,000  Level Miami Center
Thu 05:51:57 PM 21.4775 -70.2789 North 458 527 38,000  Level Miami Center
Thu 05:52:57 PM 21.6064 -70.2703 North 458 527 38,000  Level Miami Center
Thu 05:53:57 PM 21.7456 -70.2614 North 458 527 38,000  Level Miami Center
Thu 05:54:57 PM 21.8706 -70.2550 North 458 527 38,000  Level Miami Center
Thu 05:55:57 PM 21.9806 -70.2453 North 469 540 38,000  Level Miami Center
Thu 05:56:57 PM 22.1053 -70.2389 North 457 526 38,000  Level Miami Center
Thu 05:57:57 PM 22.2303 -70.2303 North 450 518 38,000  Level Miami Center
Thu 05:58:57 PM 22.3528 -70.2219 North 440 506 38,000  Level Miami Center
Thu 05:59:57 PM 22.4756 -70.2158 North 440 506 38,000  Level Miami Center
Thu 06:00:57 PM 22.5964 -70.2097 North 435 501 38,000  Level Miami Center
Thu 06:01:57 PM 22.7169 -70.2011 North 435 501 38,000  Level Miami Center
Thu 06:02:57 PM 22.8375 -70.1950 North 435 501 38,000  Level Miami Center
Thu 06:03:57 PM 22.9581 -70.1842 North 440 506 38,000  Level Miami Center
Thu 06:04:57 PM 23.0786 -70.1736 North 440 506 38,000  Level Miami Center
Thu 06:05:57 PM 23.1994 -70.1672 North 440 506 38,000  Level Miami Center
Thu 06:06:57 PM 23.3181 -70.1611 North 434 499 38,000  Level Miami Center
Thu 06:07:57 PM 23.4386 -70.1525 North 434 499 38,000  Level Miami Center
Thu 06:08:57 PM 23.5614 -70.1481 North 434 499 38,000  Level Miami Center
Thu 06:09:57 PM 23.6800 -70.1397 North 434 499 38,000  Level Miami Center
Thu 06:10:57 PM 23.8006 -70.1308 North 434 499 38,000  Level Miami Center
Thu 06:11:57 PM 23.9236 -70.1289 North 434 499 38,000  Level Miami Center
Thu 06:12:57 PM 24.0422 -70.1181 North 434 499 38,000  Level Miami Center
Thu 06:13:57 PM 24.1625 -70.1069 North 434 499 38,000  Level Miami Center
Thu 06:14:57 PM 24.2878 -70.1072 360° North 439 505 38,000  Level Miami Center
Thu 06:15:57 PM 24.4017 -70.0850 10° North 432 497 38,000  Level Miami Center
Thu 06:16:57 PM 24.5292 -70.0917 357° North 438 504 38,000  Level Miami Center
Thu 06:17:57 PM 24.6519 -70.0828 North 438 504 38,000  Level Miami Center
Thu 06:18:57 PM 24.7744 -70.0714 North 438 504 38,000  Level Miami Center
Thu 06:19:57 PM 24.8972 -70.0644 North 438 504 38,000  Level Miami Center
Thu 06:20:57 PM 25.0203 -70.0622 North 438 504 38,000  Level Miami Center
Thu 06:21:18 PM 25.0000 -70.0500 348° North 420 483 38,000  Level New York Oceanic (ODAPS)
Thu 06:28:00 PM 26.0329 -70.2909 348° North 420 483 38,000  Level FlightAware Transoceanic
Thu 06:29:00 PM 26.1477 -70.3179 348° North 420 483 38,000  Level FlightAware Transoceanic
Thu 06:30:00 PM 26.2624 -70.3450 348° North 420 483 38,000  Level FlightAware Transoceanic
Thu 06:31:00 PM 26.3772 -70.3721 348° North 420 483 38,000  Level FlightAware Transoceanic
Thu 06:32:00 PM 26.4919 -70.3993 348° North 420 483 38,000  Level FlightAware Transoceanic
Thu 06:33:00 PM 26.6066 -70.4265 348° North 420 483 38,000  Level FlightAware Transoceanic
Thu 06:34:00 PM 26.7213 -70.4538 348° North 420 483 38,000  Level FlightAware Transoceanic
Thu 06:35:00 PM 26.8361 -70.4812 348° North 420 483 38,000  Level FlightAware Transoceanic
Thu 06:36:00 PM 26.9508 -70.5086 348° North 420 483 38,000  Level FlightAware Transoceanic
Thu 06:37:00 PM 27.0655 -70.5360 348° North 420 483 38,000  Level FlightAware Transoceanic
Thu 06:38:00 PM 27.1802 -70.5636 348° North 420 483 38,000  Level FlightAware Transoceanic
Thu 06:39:00 PM 27.2949 -70.5911 348° North 420 483 38,000  Level FlightAware Transoceanic
Thu 06:40:00 PM 27.4096 -70.6188 348° North 420 483 38,000  Level FlightAware Transoceanic
Thu 06:41:00 PM 27.5242 -70.6465 348° North 420 483 38,000  Level FlightAware Transoceanic
Thu 06:42:00 PM 27.6389 -70.6742 348° North 420 483 38,000  Level FlightAware Transoceanic
Thu 06:43:00 PM 27.7536 -70.7020 348° North 420 483 38,000  Level FlightAware Transoceanic
Thu 06:44:00 PM 27.8683 -70.7299 348° North 420 483 38,000  Level FlightAware Transoceanic
Thu 06:45:00 PM 27.9829 -70.7578 348° North 420 483 38,000  Level FlightAware Transoceanic
Thu 06:46:00 PM 28.0976 -70.7858 348° North 420 483 38,000  Level FlightAware Transoceanic
Thu 06:47:00 PM 28.2122 -70.8138 348° North 420 483 38,000  Level FlightAware Transoceanic
Thu 06:48:00 PM 28.3269 -70.8419 348° North 420 483 38,000  Level FlightAware Transoceanic
Thu 06:49:00 PM 28.4415 -70.8701 348° North 420 483 38,000  Level FlightAware Transoceanic
Thu 06:50:00 PM 28.5561 -70.8983 348° North 420 483 38,000  Level FlightAware Transoceanic
Thu 06:51:00 PM 28.6708 -70.9266 348° North 420 483 38,000  Level FlightAware Transoceanic
Thu 06:52:00 PM 28.7854 -70.9549 348° North 420 483 38,000  Level FlightAware Transoceanic
Thu 06:53:00 PM 28.9000 -70.9833 348° North 420 483 38,000  Level FlightAware Transoceanic
Thu 06:54:00 PM 29.0168 -71.0121 348° North 420 483 38,000  Level FlightAware Transoceanic
Thu 06:54:39 PM 28.9000 -70.9833 348° North 406 467 38,000  Level New York Oceanic (ODAPS)
Thu 06:55:00 PM 29.1335 -71.0409 348° North 420 483 38,000  Level FlightAware Transoceanic
Thu 06:56:00 PM 29.2502 -71.0697 348° North 420 483 38,000  Level FlightAware Transoceanic
Thu 06:57:00 PM 29.3670 -71.0987 348° North 420 483 38,000  Level FlightAware Transoceanic
Thu 06:58:00 PM 29.4837 -71.1276 348° North 420 483 38,000  Level FlightAware Transoceanic
Thu 06:59:00 PM 29.6004 -71.1567 348° North 420 483 38,000  Level FlightAware Transoceanic
Thu 07:00:00 PM 29.7171 -71.1858 348° North 420 483 38,000  Level FlightAware Transoceanic
Thu 07:01:00 PM 29.8005 -71.2067 348° North 406 467 38,000  Level FlightAware Transoceanic
Thu 07:02:00 PM 29.9130 -71.2349 348° North 406 467 38,000  Level FlightAware Transoceanic
Thu 07:03:00 PM 30.0256 -71.2632 348° North 406 467 38,000  Level FlightAware Transoceanic
Thu 07:04:00 PM 30.1381 -71.2915 348° North 406 467 38,000  Level FlightAware Transoceanic
Thu 07:05:00 PM 30.2506 -71.3199 348° North 406 467 38,000  Level FlightAware Transoceanic
Thu 07:06:00 PM 30.3631 -71.3483 348° North 406 467 38,000  Level FlightAware Transoceanic
Thu 07:07:00 PM 30.4756 -71.3769 348° North 406 467 38,000  Level FlightAware Transoceanic
Thu 07:08:00 PM 30.5881 -71.4054 348° North 406 467 38,000  Level FlightAware Transoceanic
Thu 07:09:00 PM 30.7006 -71.4341 348° North 406 467 38,000  Level FlightAware Transoceanic
Thu 07:10:00 PM 30.8131 -71.4628 348° North 406 467 38,000  Level FlightAware Transoceanic
Thu 07:11:00 PM 30.9256 -71.4916 348° North 406 467 38,000  Level FlightAware Transoceanic
Thu 07:12:00 PM 31.0380 -71.5205 348° North 406 467 38,000  Level FlightAware Transoceanic
Thu 07:13:00 PM 31.1505 -71.5494 348° North 406 467 38,000  Level FlightAware Transoceanic
Thu 07:14:00 PM 31.2630 -71.5784 348° North 406 467 38,000  Level FlightAware Transoceanic
Thu 07:15:00 PM 31.3754 -71.6075 348° North 406 467 38,000  Level FlightAware Transoceanic
Thu 07:16:00 PM 31.4879 -71.6366 348° North 406 467 38,000  Level FlightAware Transoceanic
Thu 07:17:00 PM 31.6003 -71.6658 348° North 406 467 38,000  Level FlightAware Transoceanic
Thu 07:18:00 PM 31.7127 -71.6951 347° North 406 467 38,000  Level FlightAware Transoceanic
Thu 07:19:00 PM 31.8252 -71.7244 347° North 406 467 38,000  Level FlightAware Transoceanic
Thu 07:20:00 PM 31.9376 -71.7538 347° North 406 467 38,000  Level FlightAware Transoceanic
Thu 07:21:00 PM 32.0500 -71.7833 348° North 406 467 38,000  Level FlightAware Transoceanic
Thu 07:22:00 PM 32.1575 -71.8114 347° North 406 467 38,000  Level FlightAware Transoceanic
Thu 07:23:00 PM 32.2649 -71.8396 347° North 406 467 38,000  Level FlightAware Transoceanic
Thu 07:24:00 PM 32.3724 -71.8679 347° North 406 467 38,000  Level FlightAware Transoceanic
Thu 07:25:00 PM 32.4798 -71.8962 347° North 406 467 38,000  Level FlightAware Transoceanic
Thu 07:26:00 PM 32.5872 -71.9246 347° North 406 467 38,000  Level FlightAware Transoceanic
Thu 07:27:00 PM 32.6947 -71.9530 347° North 406 467 38,000  Level FlightAware Transoceanic
Thu 07:28:00 PM 32.8021 -71.9816 347° North 406 467 38,000  Level FlightAware Transoceanic
Thu 07:29:00 PM 32.9095 -72.0102 347° North 406 467 38,000  Level FlightAware Transoceanic
Thu 07:30:00 PM 33.0169 -72.0388 347° North 406 467 38,000  Level FlightAware Transoceanic
Thu 07:31:00 PM 33.1243 -72.0676 347° North 406 467 38,000  Level FlightAware Transoceanic
Thu 07:32:00 PM 33.2317 -72.0964 347° North 406 467 38,000  Level FlightAware Transoceanic
Thu 07:33:00 PM 33.3391 -72.1252 347° North 406 467 38,000  Level FlightAware Transoceanic
Thu 07:34:00 PM 33.4465 -72.1542 347° North 406 467 38,000  Level FlightAware Transoceanic
Thu 07:35:00 PM 33.5539 -72.1832 347° North 406 467 38,000  Level FlightAware Transoceanic
Thu 07:36:00 PM 33.6613 -72.2123 347° North 406 467 38,000  Level FlightAware Transoceanic
Thu 07:37:00 PM 33.7686 -72.2415 347° North 406 467 38,000  Level FlightAware Transoceanic
Thu 07:38:00 PM 33.8760 -72.2707 347° North 406 467 38,000  Level FlightAware Transoceanic
Thu 07:39:00 PM 33.9860 -72.3062 345° North  Level FlightAware Approximate
Thu 07:40:00 PM 33.9904 -72.3021 356° North  Level FlightAware Approximate
Thu 07:41:00 PM 34.1040 -72.3119 356° North  Level FlightAware Approximate
Thu 07:41:58 PM 34.2869 -72.3200 356° North 451 519 38,000  Level New York Center
Thu 07:42:00 PM 34.2176 -72.3218 356° North  Level FlightAware Approximate
Thu 07:42:58 PM 34.4014 -72.3350 354° North 411 473 38,000  Level New York Center
Thu 07:43:00 PM 34.3311 -72.3317 356° North  Level FlightAware Approximate
Thu 07:43:59 PM 34.4994 -72.3269 North 411 473 38,000  Level New York Center
Thu 07:44:00 PM 34.4447 -72.3419 356° North  Level FlightAware Approximate
Thu 07:44:59 PM 34.6344 -72.3650 347° North 460 529 38,000  Level New York Center
Thu 07:45:00 PM 34.5582 -72.3522 356° North  Level FlightAware Approximate
Thu 07:45:57 PM 34.7594 -72.3750 356° North 448 516 38,000  Level New York Center
Thu 07:46:00 PM 34.6718 -72.3626 356° North  Level FlightAware Approximate
Thu 07:46:57 PM 34.8719 -72.3925 353° North 434 499 38,000  Level New York Center
Thu 07:47:58 PM 34.9886 -72.4050 355° North 421 484 38,000  Level New York Center
Thu 07:48:58 PM 35.1136 -72.4103 358° North 427 491 38,000  Level New York Center
Thu 07:49:58 PM 35.2347 -72.4078 North 427 491 38,000  Level New York Center
Thu 07:51:00 PM 35.3558 -72.4078 360° North 427 491 38,000  Level New York Center
Thu 07:51:57 PM 35.4725 -72.4078 360° North 422 486 38,000  Level New York Center
Thu 07:52:57 PM 35.5914 -72.4078 360° North 422 486 38,000 -50 Level New York Center
Thu 07:53:58 PM 35.7106 -72.4025 North 417 480 37,900 -443 Descending New York Center
Thu 07:54:59 PM 35.8231 -72.4050 359° North 417 480 37,100 -1,140 Descending New York Center
Thu 07:55:59 PM 35.9419 -72.4000 North 411 473 35,600 -1,513 Descending New York Center
Thu 07:56:58 PM 36.0525 -72.4022 359° North 411 473 34,100 -807 Descending New York Center
Thu 07:57:58 PM 36.1717 -72.3997 North 417 480 34,000 -50 Descending New York Center
Thu 07:58:59 PM 36.2906 -72.3997 360° North 422 486 34,000  Level New York Center
Thu 07:59:57 PM 36.4114 -72.3972 North 422 486 34,000  Level New York Center
Thu 08:00:57 PM 36.5242 -72.3997 359° North 415 478 34,000  Level New York Center
Thu 08:01:58 PM 36.6411 -72.3969 North 413 475 34,000  Level New York Center
Thu 08:02:58 PM 36.7661 -72.3947 North 418 481 34,000  Level New York Center
Thu 08:03:57 PM 36.8831 -72.3944 360° North 418 481 34,000  Level New York Center
Thu 08:04:58 PM 37.0039 -72.3947 360° North 418 481 34,000  Level New York Center
Thu 08:05:58 PM 37.1189 -72.3944 360° North 418 481 34,000  Level New York Center
Thu 08:06:58 PM 37.2264 -72.4569 335° Northwest 413 475 34,000  Level New York Center
Thu 08:12:49 PM 37.7904 -72.9909 335° Northwest 431 496 34,000  Level FlightAware ADS-B
Thu 08:13:24 PM 37.8455 -73.0442 323° Northwest 431 496 34,000 -1,519 Level FlightAware ADS-B
Thu 08:16:42 PM 38.1450 -73.3380 322° Northwest 417 480 28,100 -1,901 Descending FlightAware ADS-B
Thu 08:17:27 PM 38.2130 -73.4060 322° Northwest 405 466 26,300 -2,259 Descending FlightAware ADS-B
Thu 08:18:07 PM 38.2680 -73.4600 322° Northwest 392 451 24,900 -2,483 Descending FlightAware ADS-B
Thu 08:18:25 PM 38.3078 -73.4998 322° Northwest 383 441 23,900 -2,571 Descending FlightAware ADS-B
Thu 08:18:56 PM 38.3495 -73.5413 322° Northwest 375 432 22,800 -2,031 Descending FlightAware ADS-B
Thu 08:19:30 PM 38.3955 -73.5875 322° Northwest 367 422 21,700 -1,970 Descending FlightAware ADS-B
Thu 08:20:03 PM 38.4393 -73.6314 322° Northwest 360 414 20,600 -2,063 Descending FlightAware ADS-B
Thu 08:20:34 PM 38.4789 -73.6713 322° Northwest 355 409 19,500 -2,000 Descending FlightAware ADS-B
Thu 08:21:15 PM 38.5309 -73.7233 322° Northwest 348 400 18,200 -2,000 Descending FlightAware ADS-B
Thu 08:22:22 PM 38.6060 -73.8000 321° Northwest 350 403 15,900 -1,696 Descending FlightAware ADS-B
Thu 08:22:47 PM 38.6389 -73.8534 308° West 354 407 15,600 -300 Descending FlightAware ADS-B
Thu 08:23:22 PM 38.6709 -73.9167 303° West 358 412 15,600  Level FlightAware ADS-B
Thu 08:23:50 PM 38.6950 -73.9658 302° West 359 413 15,600  Level FlightAware ADS-B
Thu 08:24:05 PM 38.7103 -73.9909 308° West 355 409 15,600  Level FlightAware ADS-B
Thu 08:24:18 PM 38.7248 -74.0103 314° West 352 405 15,600  Level FlightAware ADS-B
Thu 08:24:51 PM 38.7642 -74.0568 317° Northwest 353 406 15,600  Level FlightAware ADS-B
Thu 08:25:21 PM 38.8013 -74.0994 318° Northwest 353 406 15,600  Level FlightAware ADS-B
Thu 08:25:52 PM 38.8389 -74.1423 318° Northwest 354 407 15,600  Level FlightAware ADS-B
Thu 08:26:22 PM 38.8758 -74.1851 318° Northwest 353 406 15,600  Level FlightAware ADS-B
Thu 08:26:53 PM 38.9132 -74.2283 318° Northwest 352 405 15,600  Level FlightAware ADS-B
Thu 08:27:26 PM 38.9539 -74.2750 318° Northwest 375 432 15,600  Level FlightAware ADS-B
Thu 08:28:00 PM 38.9992 -74.3275 318° Northwest 404 465 15,600  Level FlightAware ADS-B
Thu 08:28:31 PM 39.0423 -74.3780 318° Northwest 409 471 15,600 -295 Level FlightAware ADS-B
Thu 08:29:01 PM 39.0823 -74.4252 318° Northwest 378 435 15,300 -1,648 Descending FlightAware ADS-B
Thu 08:30:02 PM 39.1510 -74.5060 318° Northwest 373 429 13,100 -2,417 Descending FlightAware ADS-B
Thu 08:30:13 PM 39.1750 -74.5351 317° Northwest 377 434 12,400 -1,624 Descending FlightAware ADS-B
Thu 08:31:27 PM 39.2520 -74.6270 317° Northwest 331 381 10,800 -1,316 Descending FlightAware ADS-B
Thu 08:32:07 PM 39.2980 -74.6800 318° Northwest 311 358 9,900 -1,200 Descending FlightAware ADS-B
Thu 08:32:37 PM 39.3300 -74.7170 318° Northwest 296 341 9,400 -1,294 Descending FlightAware ADS-B
Thu 08:32:58 PM 39.3575 -74.7507 317° Northwest 292 336 8,800 -1,263 Descending FlightAware ADS-B
Thu 08:33:15 PM 39.3735 -74.7701 317° Northwest 286 329 8,600 -375 Descending FlightAware ADS-B
Thu 08:33:30 PM 39.3889 -74.7886 317° Northwest 287 330 8,600  Level FlightAware ADS-B
Thu 08:34:12 PM 39.4210 -74.8270 317° Northwest 289 333 8,600  Level FlightAware ADS-B
Thu 08:34:23 PM 39.4404 -74.8504 317° Northwest 290 334 8,600  Level FlightAware ADS-B
Thu 08:34:38 PM 39.4552 -74.8681 317° Northwest 289 333 8,600  Level FlightAware ADS-B
Thu 08:34:53 PM 39.4701 -74.8859 317° Northwest 289 333 8,600  Level FlightAware ADS-B
Thu 08:35:09 PM 39.4859 -74.9050 317° Northwest 289 333 8,600  Level FlightAware ADS-B
Thu 08:35:16 PM 39.4931 -74.9134 318° Northwest 287 330 8,600  Level FlightAware ADS-B
Thu 08:35:20 PM 39.4967 -74.9168 324° Northwest 286 329 8,600  Level FlightAware ADS-B
Thu 08:35:23 PM 39.5008 -74.9199 330° Northwest 282 325 8,600  Level FlightAware ADS-B
Thu 08:35:28 PM 39.5058 -74.9227 337° Northwest 279 321 8,600 -667 Level FlightAware ADS-B
Thu 08:35:32 PM 39.5113 -74.9246 345° North 275 316 8,500 -857 Descending FlightAware ADS-B
Thu 08:35:35 PM 39.5151 -74.9254 351° North 272 313 8,500 -947 Level FlightAware ADS-B
Thu 08:35:51 PM 39.5345 -74.9273 356° North 271 312 8,200 -1,355 Descending FlightAware ADS-B
Thu 08:36:06 PM 39.5539 -74.9295 355° North 272 313 7,800 -1,400 Descending FlightAware ADS-B
Thu 08:36:21 PM 39.5733 -74.9321 354° North 272 313 7,500 -1,355 Descending FlightAware ADS-B
Thu 08:36:37 PM 39.5930 -74.9347 354° North 272 313 7,100 -1,355 Descending FlightAware ADS-B
Thu 08:36:52 PM 39.6120 -74.9371 354° North 270 311 6,800 -1,241 Descending FlightAware ADS-B
Thu 08:37:06 PM 39.6287 -74.9391 355° North 268 308 6,500 -1,400 Descending FlightAware ADS-B
Thu 08:37:22 PM 39.6491 -74.9417 354° North 266 306 6,100 -1,500 Descending FlightAware ADS-B
Thu 08:37:38 PM 39.6685 -74.9440 355° North 266 306 5,700 -938 Descending FlightAware ADS-B
Thu 08:37:54 PM 39.6881 -74.9462 355° North 265 305 5,600 -194 Descending FlightAware ADS-B
Thu 08:38:09 PM 39.7068 -74.9484 355° North 268 308 5,600 -150 Level FlightAware ADS-B
Thu 08:38:34 PM 39.7369 -74.9517 355° North 269 310 5,500 -714 Descending FlightAware ADS-B
Thu 08:38:51 PM 39.7578 -74.9539 355° North 267 307 5,100 -1,622 Descending FlightAware ADS-B
Thu 08:39:11 PM 39.7820 -74.9567 355° North 262 302 4,500 -2,182 Descending FlightAware ADS-B
Thu 08:39:24 PM 39.7983 -74.9586 355° North 259 298 3,900 -2,069 Descending FlightAware ADS-B
Thu 08:39:40 PM 39.8167 -74.9606 355° North 249 287 3,500 -1,385 Descending FlightAware ADS-B
Thu 08:39:50 PM 39.8279 -74.9618 355° North 240 276 3,300 -1,200 Descending FlightAware ADS-B
Thu 08:39:55 PM 39.8333 -74.9630 350° North 238 274 3,200 -1,333 Descending FlightAware ADS-B
Thu 08:39:59 PM 39.8381 -74.9649 343° North 237 273 3,100 -1,500 Descending FlightAware ADS-B
Thu 08:40:03 PM 39.8424 -74.9675 335° Northwest 237 273 3,000 -1,500 Descending FlightAware ADS-B
Thu 08:40:07 PM 39.8454 -74.9699 328° Northwest 237 273 2,900 -1,500 Descending FlightAware ADS-B
Thu 08:40:11 PM 39.8486 -74.9736 318° Northwest 237 273 2,800 -1,565 Descending FlightAware ADS-B
Thu 08:40:30 PM 39.8629 -74.9935 313° West 229 264 2,300 -1,440 Descending FlightAware ADS-B
Thu 08:40:36 PM 39.8668 -75.0003 307° West 223 257 2,200 -818 Descending FlightAware ADS-B
Thu 08:40:52 PM 39.8761 -75.0173 305° West 206 237 2,000 -727 Descending FlightAware ADS-B
Thu 08:41:09 PM 39.8852 -75.0334 306° West 192 221 1,800 -545 Descending FlightAware ADS-B
Thu 08:41:25 PM 39.8929 -75.0476 305° West 184 212 1,700 -231 Descending FlightAware ADS-B
Thu 08:41:35 PM 39.8979 -75.0576 303° West 189 217 1,700  Level FlightAware ADS-B
Thu 08:41:41 PM 39.9001 -75.0630 298° West 189 217 1,700  Level FlightAware ADS-B
Thu 08:41:44 PM 39.9012 -75.0662 294° West 188 216 1,700 -857 Level FlightAware ADS-B
Thu 08:41:48 PM 39.9023 -75.0701 290° West 187 215 1,600 -857 Descending FlightAware ADS-B
Thu 08:41:51 PM 39.9030 -75.0735 285° West 185 213 1,600  Level FlightAware ADS-B
Thu 08:41:56 PM 39.9036 -75.0792 278° West 184 212 1,600 -750 Level FlightAware ADS-B
Thu 08:41:59 PM 39.9037 -75.0828 272° West 184 212 1,500  Descending FlightAware ADS-B
Thu 08:42:03 PM 39.9035 -75.0866 266° West 183 211 1,600 545 Climbing FlightAware ADS-B
Thu 08:42:10 PM 39.9027 -75.0943 262° West 182 209 1,600  Level FlightAware ADS-B
Thu 08:42:17 PM 39.9015 -75.1022 259° West 180 207 1,600 -783 Level FlightAware ADS-B
Thu 08:42:33 PM 39.8984 -75.1182 256° West 170 196 1,300 -960 Descending FlightAware ADS-B
Thu 08:42:42 PM 39.8967 -75.1273 256° West 166 191 1,200 -960 Descending FlightAware ADS-B
Thu 08:42:58 PM 39.8936 -75.1422 255° West 154 177 900 -923 Descending FlightAware ADS-B
Thu 08:43:08 PM 39.8919 -75.1505 255° West 152 175 800 -692 Descending FlightAware ADS-B
Thu 08:43:24 PM 39.8891 -75.1647 256° West 150 173 600 -750 Descending FlightAware ADS-B
Thu 08:43:40 PM 39.8861 -75.1790 255° West 150 173 400 -774 Descending FlightAware ADS-B
Thu 08:43:55 PM 39.8833 -75.1920 254° West 150 173 200 -800 Descending FlightAware ADS-B
Thu 08:44:37 PM 39.8780 -75.2190 256° West 150 173 -286 Descending FlightAware ADS-B
Thu 08:45:02 PM 39.8730 -75.2400 253° West 150 173  Level FlightAware ADS-B

Login

Don't have an account? Register now (free) for customized features, flight alerts, and more!